N313TM KAVL-KUZA
Flight info
| Callsign | N313TM |
|---|---|
| Flight time | 0h 40m |
| Altitude | 7500 |
| Route | SUG |
| Aircraft | DA40/L-SG/L |
Departure
| Time | 2026-04-24 23:21 |
|---|---|
| Airport | Asheville Regional Airport (KAVL) |
Arrival
| Time | 2026-04-25 00:01 |
|---|---|
| Airport | Rock Hill - York County Airport (KUZA) |
| Time | Latitude | Longitude | Altitude | Speed | Heading |
|---|---|---|---|---|---|
| 2026-04-24 22:47 | 35.43977 | -82.54040 | 2159 ft | 0 kts | 244° |
| 2026-04-24 23:12 | 35.43977 | -82.54041 | 2159 ft | 1 kts | 244° |
| 2026-04-24 23:12 | 35.43978 | -82.54053 | 2156 ft | 1 kts | 328° |
| 2026-04-24 23:13 | 35.43992 | -82.54071 | 2157 ft | 4 kts | 275° |
| 2026-04-24 23:13 | 35.43977 | -82.54130 | 2160 ft | 11 kts | 250° |
| 2026-04-24 23:13 | 35.43962 | -82.54210 | 2160 ft | 7 kts | 280° |
| 2026-04-24 23:13 | 35.43985 | -82.54231 | 2156 ft | 6 kts | 340° |
| 2026-04-24 23:14 | 35.44035 | -82.54252 | 2162 ft | 10 kts | 335° |
| 2026-04-24 23:14 | 35.44119 | -82.54290 | 2163 ft | 16 kts | 341° |
| 2026-04-24 23:14 | 35.44235 | -82.54342 | 2163 ft | 19 kts | 337° |
| 2026-04-24 23:14 | 35.44360 | -82.54398 | 2168 ft | 18 kts | 342° |
| 2026-04-24 23:15 | 35.44455 | -82.54442 | 2169 ft | 13 kts | 340° |
| 2026-04-24 23:15 | 35.44539 | -82.54479 | 2169 ft | 13 kts | 340° |
| 2026-04-24 23:15 | 35.44622 | -82.54515 | 2176 ft | 11 kts | 340° |
| 2026-04-24 23:15 | 35.44658 | -82.54542 | 2177 ft | 1 kts | 298° |
| 2026-04-24 23:18 | 35.44662 | -82.54559 | 2174 ft | 3 kts | 275° |
| 2026-04-24 23:19 | 35.44661 | -82.54570 | 2175 ft | 0 kts | 253° |
| 2026-04-24 23:19 | 35.44649 | -82.54611 | 2175 ft | 8 kts | 250° |
| 2026-04-24 23:19 | 35.44622 | -82.54650 | 2174 ft | 4 kts | 180° |
| 2026-04-24 23:19 | 35.44565 | -82.54629 | 2176 ft | 16 kts | 160° |
| 2026-04-24 23:20 | 35.44360 | -82.54544 | 2171 ft | 53 kts | 161° |
| 2026-04-24 23:20 | 35.43897 | -82.54332 | 2212 ft | 83 kts | 158° |
| 2026-04-24 23:20 | 35.43330 | -82.54076 | 2375 ft | 91 kts | 159° |
| 2026-04-24 23:20 | 35.42694 | -82.53798 | 2547 ft | 99 kts | 159° |
| 2026-04-24 23:21 | 35.42027 | -82.53540 | 2825 ft | 101 kts | 162° |
| 2026-04-24 23:21 | 35.41353 | -82.53287 | 3077 ft | 102 kts | 162° |
| 2026-04-24 23:21 | 35.40719 | -82.52920 | 3332 ft | 104 kts | 135° |
| 2026-04-24 23:21 | 35.40386 | -82.52104 | 3494 ft | 110 kts | 105° |
| 2026-04-24 23:22 | 35.40103 | -82.51244 | 3752 ft | 107 kts | 113° |
| 2026-04-24 23:22 | 35.39827 | -82.50391 | 4010 ft | 110 kts | 110° |
| 2026-04-24 23:22 | 35.39583 | -82.49504 | 4206 ft | 109 kts | 102° |
| 2026-04-24 23:22 | 35.39494 | -82.48568 | 4383 ft | 112 kts | 92° |
| 2026-04-24 23:23 | 35.39411 | -82.47624 | 4574 ft | 113 kts | 94° |
| 2026-04-24 23:23 | 35.39317 | -82.46675 | 4838 ft | 108 kts | 96° |
| 2026-04-24 23:23 | 35.39227 | -82.45730 | 5012 ft | 113 kts | 89° |
| 2026-04-24 23:23 | 35.39259 | -82.44775 | 5198 ft | 112 kts | 83° |
| 2026-04-24 23:24 | 35.39322 | -82.43848 | 5378 ft | 114 kts | 83° |
| 2026-04-24 23:24 | 35.39362 | -82.42857 | 5509 ft | 118 kts | 84° |
| 2026-04-24 23:24 | 35.39404 | -82.41842 | 5669 ft | 119 kts | 85° |
| 2026-04-24 23:24 | 35.39457 | -82.40844 | 5871 ft | 116 kts | 82° |
| 2026-04-24 23:25 | 35.39523 | -82.39843 | 6003 ft | 117 kts | 85° |
| 2026-04-24 23:25 | 35.39649 | -82.38871 | 6239 ft | 115 kts | 75° |
| 2026-04-24 23:25 | 35.39821 | -82.37892 | 6414 ft | 116 kts | 79° |
| 2026-04-24 23:25 | 35.39971 | -82.36906 | 6588 ft | 119 kts | 78° |
| 2026-04-24 23:26 | 35.40098 | -82.35894 | 6769 ft | 118 kts | 82° |
| 2026-04-24 23:26 | 35.40198 | -82.34920 | 7013 ft | 113 kts | 81° |
| 2026-04-24 23:26 | 35.40301 | -82.33985 | 7250 ft | 109 kts | 81° |
| 2026-04-24 23:26 | 35.40402 | -82.33079 | 7465 ft | 106 kts | 81° |
| 2026-04-24 23:27 | 35.40504 | -82.32128 | 7506 ft | 121 kts | 82° |
| 2026-04-24 23:27 | 35.40625 | -82.31044 | 7504 ft | 135 kts | 81° |
| 2026-04-24 23:27 | 35.40748 | -82.29866 | 7496 ft | 143 kts | 87° |
| 2026-04-24 23:27 | 35.40751 | -82.28639 | 7506 ft | 145 kts | 91° |
| 2026-04-24 23:28 | 35.40728 | -82.27388 | 7511 ft | 149 kts | 92° |
| 2026-04-24 23:28 | 35.40704 | -82.26107 | 7486 ft | 149 kts | 92° |
| 2026-04-24 23:28 | 35.40464 | -82.24904 | 7508 ft | 147 kts | 111° |
| 2026-04-24 23:28 | 35.40111 | -82.23722 | 7511 ft | 149 kts | 112° |
| 2026-04-24 23:29 | 35.39754 | -82.22534 | 7508 ft | 147 kts | 112° |
| 2026-04-24 23:29 | 35.39394 | -82.21357 | 7511 ft | 148 kts | 112° |
| 2026-04-24 23:29 | 35.39028 | -82.20178 | 7512 ft | 149 kts | 112° |
| 2026-04-24 23:29 | 35.38655 | -82.18994 | 7512 ft | 149 kts | 112° |
| 2026-04-24 23:30 | 35.38283 | -82.17806 | 7515 ft | 150 kts | 113° |
| 2026-04-24 23:30 | 35.37912 | -82.16607 | 7512 ft | 150 kts | 112° |
| 2026-04-24 23:30 | 35.37538 | -82.15409 | 7514 ft | 151 kts | 113° |
| 2026-04-24 23:30 | 35.37167 | -82.14200 | 7516 ft | 152 kts | 112° |
| 2026-04-24 23:31 | 35.36792 | -82.12982 | 7517 ft | 153 kts | 113° |
| 2026-04-24 23:31 | 35.36409 | -82.11763 | 7517 ft | 153 kts | 113° |
| 2026-04-24 23:31 | 35.36030 | -82.10540 | 7518 ft | 154 kts | 112° |
| 2026-04-24 23:31 | 35.35648 | -82.09331 | 7513 ft | 151 kts | 112° |
| 2026-04-24 23:32 | 35.35269 | -82.08132 | 7514 ft | 150 kts | 112° |
| 2026-04-24 23:32 | 35.34892 | -82.06939 | 7518 ft | 150 kts | 113° |
| 2026-04-24 23:32 | 35.34515 | -82.05743 | 7519 ft | 150 kts | 112° |
| 2026-04-24 23:32 | 35.34140 | -82.04541 | 7521 ft | 152 kts | 112° |
| 2026-04-24 23:33 | 35.33763 | -82.03326 | 7522 ft | 153 kts | 112° |
| 2026-04-24 23:33 | 35.33513 | -82.02515 | 7521 ft | 154 kts | 112° |
| 2026-04-24 23:33 | 35.33002 | -82.00894 | 7519 ft | 152 kts | 113° |
| 2026-04-24 23:33 | 35.32624 | -81.99687 | 7519 ft | 151 kts | 112° |
| 2026-04-24 23:34 | 35.32243 | -81.98494 | 7519 ft | 150 kts | 112° |
| 2026-04-24 23:34 | 35.31862 | -81.97307 | 7524 ft | 150 kts | 112° |
| 2026-04-24 23:34 | 35.31485 | -81.96108 | 7521 ft | 152 kts | 113° |
| 2026-04-24 23:34 | 35.31107 | -81.94906 | 7516 ft | 151 kts | 112° |
| 2026-04-24 23:35 | 35.30732 | -81.93707 | 7519 ft | 151 kts | 112° |
| 2026-04-24 23:35 | 35.30357 | -81.92507 | 7515 ft | 151 kts | 112° |
| 2026-04-24 23:35 | 35.29987 | -81.91326 | 7514 ft | 150 kts | 112° |
| 2026-04-24 23:35 | 35.29610 | -81.90133 | 7516 ft | 151 kts | 112° |
| 2026-04-24 23:36 | 35.29233 | -81.88933 | 7512 ft | 151 kts | 112° |
| 2026-04-24 23:36 | 35.28854 | -81.87733 | 7510 ft | 151 kts | 112° |
| 2026-04-24 23:36 | 35.28475 | -81.86543 | 7509 ft | 150 kts | 113° |
| 2026-04-24 23:36 | 35.28102 | -81.85347 | 7510 ft | 151 kts | 112° |
| 2026-04-24 23:37 | 35.27731 | -81.84168 | 7500 ft | 147 kts | 112° |
| 2026-04-24 23:37 | 35.27365 | -81.82997 | 7400 ft | 151 kts | 113° |
| 2026-04-24 23:37 | 35.26609 | -81.80567 | 7044 ft | 154 kts | 112° |
| 2026-04-24 23:38 | 35.26225 | -81.79346 | 6877 ft | 154 kts | 112° |
| 2026-04-24 23:38 | 35.25841 | -81.78122 | 6710 ft | 154 kts | 112° |
| 2026-04-24 23:38 | 35.25457 | -81.76903 | 6551 ft | 153 kts | 113° |
| 2026-04-24 23:38 | 35.25074 | -81.75684 | 6376 ft | 153 kts | 113° |
| 2026-04-24 23:39 | 35.24696 | -81.74464 | 6210 ft | 153 kts | 112° |
| 2026-04-24 23:39 | 35.24319 | -81.73248 | 6035 ft | 153 kts | 113° |
| 2026-04-24 23:39 | 35.23949 | -81.72035 | 5856 ft | 152 kts | 112° |
| 2026-04-24 23:39 | 35.23589 | -81.70821 | 5689 ft | 151 kts | 112° |
| 2026-04-24 23:40 | 35.23230 | -81.69614 | 5520 ft | 151 kts | 113° |
| 2026-04-24 23:40 | 35.22877 | -81.68403 | 5337 ft | 151 kts | 113° |
| 2026-04-24 23:40 | 35.22520 | -81.67196 | 5172 ft | 150 kts | 112° |
| 2026-04-24 23:40 | 35.22163 | -81.66000 | 5002 ft | 150 kts | 112° |
| 2026-04-24 23:41 | 35.21817 | -81.64805 | 4815 ft | 149 kts | 112° |
| 2026-04-24 23:41 | 35.21482 | -81.63597 | 4571 ft | 150 kts | 113° |
| 2026-04-24 23:41 | 35.21153 | -81.62387 | 4324 ft | 150 kts | 112° |
| 2026-04-24 23:41 | 35.20816 | -81.61183 | 4070 ft | 149 kts | 113° |
| 2026-04-24 23:42 | 35.20484 | -81.59983 | 3821 ft | 149 kts | 112° |
| 2026-04-24 23:42 | 35.20152 | -81.58784 | 3531 ft | 149 kts | 112° |
| 2026-04-24 23:42 | 35.19820 | -81.57573 | 3219 ft | 152 kts | 113° |
| 2026-04-24 23:42 | 35.19481 | -81.56335 | 3013 ft | 149 kts | 112° |
| 2026-04-24 23:43 | 35.19175 | -81.55194 | 2977 ft | 135 kts | 112° |
| 2026-04-24 23:43 | 35.18864 | -81.54151 | 2977 ft | 126 kts | 117° |
| 2026-04-24 23:43 | 35.18651 | -81.53499 | 2975 ft | 123 kts | 118° |
| 2026-04-24 23:43 | 35.18321 | -81.52555 | 2973 ft | 118 kts | 119° |
| 2026-04-24 23:44 | 35.17998 | -81.51638 | 2976 ft | 116 kts | 119° |
| 2026-04-24 23:44 | 35.17682 | -81.50735 | 2976 ft | 115 kts | 119° |
| 2026-04-24 23:44 | 35.17368 | -81.49838 | 2977 ft | 115 kts | 119° |
| 2026-04-24 23:44 | 35.17045 | -81.48921 | 2983 ft | 121 kts | 119° |
| 2026-04-24 23:45 | 35.16705 | -81.47958 | 2983 ft | 126 kts | 119° |
| 2026-04-24 23:45 | 35.16346 | -81.46955 | 2888 ft | 132 kts | 120° |
| 2026-04-24 23:45 | 35.15974 | -81.45921 | 2776 ft | 133 kts | 119° |
| 2026-04-24 23:45 | 35.15597 | -81.44882 | 2653 ft | 134 kts | 119° |
| 2026-04-24 23:46 | 35.15217 | -81.43844 | 2524 ft | 134 kts | 120° |
| 2026-04-24 23:46 | 35.14840 | -81.42804 | 2409 ft | 134 kts | 120° |
| 2026-04-24 23:46 | 35.14467 | -81.41767 | 2288 ft | 133 kts | 120° |
| 2026-04-24 23:46 | 35.14096 | -81.40740 | 2167 ft | 132 kts | 119° |
| 2026-04-24 23:47 | 35.13715 | -81.39719 | 2030 ft | 133 kts | 120° |
| 2026-04-24 23:47 | 35.13336 | -81.38719 | 1988 ft | 123 kts | 119° |
| 2026-04-24 23:47 | 35.12989 | -81.37789 | 1988 ft | 119 kts | 119° |
| 2026-04-24 23:47 | 35.12662 | -81.36883 | 1993 ft | 116 kts | 119° |
| 2026-04-24 23:48 | 35.12345 | -81.35982 | 1984 ft | 115 kts | 119° |
| 2026-04-24 23:48 | 35.12030 | -81.35088 | 1986 ft | 115 kts | 119° |
| 2026-04-24 23:48 | 35.11718 | -81.34196 | 1987 ft | 113 kts | 119° |
| 2026-04-24 23:48 | 35.11407 | -81.33304 | 1992 ft | 115 kts | 119° |
| 2026-04-24 23:49 | 35.11091 | -81.32405 | 1988 ft | 115 kts | 119° |
| 2026-04-24 23:49 | 35.10773 | -81.31509 | 1983 ft | 115 kts | 119° |
| 2026-04-24 23:49 | 35.10451 | -81.30616 | 1987 ft | 115 kts | 119° |
| 2026-04-24 23:49 | 35.10125 | -81.29715 | 1991 ft | 117 kts | 119° |
| 2026-04-24 23:50 | 35.09795 | -81.28805 | 1990 ft | 117 kts | 119° |
| 2026-04-24 23:50 | 35.09464 | -81.27899 | 1984 ft | 114 kts | 120° |
| 2026-04-24 23:50 | 35.09155 | -81.27023 | 1984 ft | 111 kts | 119° |
| 2026-04-24 23:50 | 35.08859 | -81.26169 | 1989 ft | 107 kts | 119° |
| 2026-04-24 23:51 | 35.08572 | -81.25346 | 2005 ft | 103 kts | 118° |
| 2026-04-24 23:51 | 35.08293 | -81.24541 | 1991 ft | 102 kts | 119° |
| 2026-04-24 23:51 | 35.08011 | -81.23741 | 1995 ft | 103 kts | 119° |
| 2026-04-24 23:51 | 35.07726 | -81.22937 | 1995 ft | 103 kts | 119° |
| 2026-04-24 23:52 | 35.07444 | -81.22146 | 1992 ft | 102 kts | 119° |
| 2026-04-24 23:52 | 35.07158 | -81.21341 | 1997 ft | 106 kts | 119° |
| 2026-04-24 23:52 | 35.06846 | -81.20475 | 2006 ft | 116 kts | 119° |
| 2026-04-24 23:52 | 35.06486 | -81.19563 | 2001 ft | 123 kts | 122° |
| 2026-04-24 23:53 | 35.06094 | -81.18622 | 2002 ft | 126 kts | 122° |
| 2026-04-24 23:53 | 35.05692 | -81.17665 | 2009 ft | 128 kts | 122° |
| 2026-04-24 23:53 | 35.05286 | -81.16690 | 2004 ft | 129 kts | 122° |
| 2026-04-24 23:53 | 35.04846 | -81.15737 | 2006 ft | 129 kts | 127° |
| 2026-04-24 23:54 | 35.04351 | -81.14823 | 2009 ft | 129 kts | 131° |
| 2026-04-24 23:54 | 35.03817 | -81.13939 | 2002 ft | 129 kts | 132° |
| 2026-04-24 23:54 | 35.03282 | -81.13062 | 2003 ft | 129 kts | 132° |
| 2026-04-24 23:54 | 35.02748 | -81.12190 | 2001 ft | 128 kts | 132° |
| 2026-04-24 23:55 | 35.02196 | -81.11357 | 1991 ft | 122 kts | 146° |
| 2026-04-24 23:55 | 35.01505 | -81.10811 | 1995 ft | 117 kts | 150° |
| 2026-04-24 23:55 | 35.00959 | -81.10064 | 1996 ft | 121 kts | 124° |
| 2026-04-24 23:55 | 35.00579 | -81.09146 | 1955 ft | 121 kts | 127° |
| 2026-04-24 23:56 | 35.00078 | -81.08359 | 1915 ft | 114 kts | 138° |
| 2026-04-24 23:56 | 34.99541 | -81.07672 | 1879 ft | 110 kts | 141° |
| 2026-04-24 23:56 | 34.99008 | -81.06999 | 1854 ft | 111 kts | 136° |
| 2026-04-24 23:56 | 34.98524 | -81.06262 | 1849 ft | 111 kts | 132° |
| 2026-04-24 23:57 | 34.98066 | -81.05504 | 1834 ft | 111 kts | 130° |
| 2026-04-24 23:57 | 34.97724 | -81.04642 | 1809 ft | 114 kts | 113° |
| 2026-04-24 23:57 | 34.97532 | -81.03708 | 1810 ft | 114 kts | 91° |
| 2026-04-24 23:57 | 34.97822 | -81.02835 | 1774 ft | 116 kts | 45° |
| 2026-04-24 23:58 | 34.98481 | -81.02302 | 1776 ft | 111 kts | 26° |
| 2026-04-24 23:58 | 34.99165 | -81.01837 | 1731 ft | 114 kts | 26° |
| 2026-04-24 23:58 | 34.99894 | -81.01464 | 1616 ft | 113 kts | 1° |
| 2026-04-24 23:58 | 35.00582 | -81.01713 | 1507 ft | 105 kts | 314° |
| 2026-04-24 23:59 | 35.01010 | -81.02395 | 1462 ft | 96 kts | 297° |
| 2026-04-24 23:59 | 35.01322 | -81.03103 | 1436 ft | 90 kts | 294° |
| 2026-04-24 23:59 | 35.01541 | -81.03790 | 1403 ft | 85 kts | 283° |
| 2026-04-24 23:59 | 35.01593 | -81.04455 | 1426 ft | 78 kts | 251° |
| 2026-04-25 00:00 | 35.01216 | -81.04937 | 1343 ft | 83 kts | 218° |
| 2026-04-25 00:00 | 35.00733 | -81.05251 | 1199 ft | 78 kts | 202° |
| 2026-04-25 00:00 | 35.00187 | -81.05382 | 959 ft | 81 kts | 191° |
| 2026-04-25 00:00 | 34.99648 | -81.05504 | 714 ft | 76 kts | 198° |
| 2026-04-25 00:01 | 34.99222 | -81.05613 | 658 ft | 46 kts | 190° |
| 2026-04-25 00:01 | 34.99061 | -81.05672 | 659 ft | 11 kts | 241° |
| 2026-04-25 00:01 | 34.99061 | -81.05736 | 660 ft | 6 kts | 281° |
| 2026-04-25 00:01 | 34.99061 | -81.05780 | 660 ft | 4 kts | 221° |
| 2026-04-25 00:02 | 34.99010 | -81.05795 | 660 ft | 11 kts | 197° |
| 2026-04-25 00:02 | 34.98919 | -81.05820 | 661 ft | 16 kts | 191° |
| 2026-04-25 00:02 | 34.98870 | -81.05870 | 661 ft | 9 kts | 261° |
| 2026-04-25 00:02 | 34.98838 | -81.05895 | 661 ft | 7 kts | 182° |
| 2026-04-25 00:03 | 34.98791 | -81.05910 | 662 ft | 4 kts | 223° |
| 2026-04-25 00:03 | 34.98786 | -81.05927 | 662 ft | 0 kts | 277° |